Time;durP1;ratioP1;P1;durP2;ratioP2;P2;SDS_P1;SDS_P2;PMS_P1;PMS_P2;Temp;Humidity;BMP_temperature;BMP_pressure;BME280_temperature;BME280_humidity;BME280_pressure;Samples;Min_cycle;Max_cycle;Signal;HPM_P1;HPM_P2
2022/05/18 00:01:08;;;;;;;5.07;4.43;;;15.90;99.90;;;;;;5000952;28;20025;-79
2022/05/18 00:03:36;;;;;;;6.72;4.53;;;15.90;99.90;;;;;;5016428;28;20030;-78
2022/05/18 00:06:04;;;;;;;5.15;4.43;;;15.80;99.90;;;;;;5033991;28;20023;-79
2022/05/18 00:08:36;;;;;;;5.50;4.90;;;15.80;99.90;;;;;;5037842;28;20470;-80
2022/05/18 00:11:13;;;;;;;6.40;4.47;;;15.90;99.90;;;;;;5037658;28;20490;-79
2022/05/18 00:13:40;;;;;;;5.05;4.30;;;15.80;99.90;;;;;;5039166;28;20037;-79
2022/05/18 00:16:06;;;;;;;5.00;4.50;;;15.80;99.90;;;;;;5041230;28;20020;-80
2022/05/18 00:18:31;;;;;;;5.28;4.72;;;15.80;99.90;;;;;;5024394;28;20025;-79
2022/05/18 00:20:59;;;;;;;4.68;4.13;;;15.80;99.90;;;;;;5039897;28;20064;-79
2022/05/18 00:23:25;;;;;;;3.80;3.50;;;15.80;99.90;;;;;;5037531;28;20022;-78
2022/05/18 00:25:51;;;;;;;5.30;4.80;;;15.70;99.90;;;;;;5037109;28;20028;-79
2022/05/18 00:28:17;;;;;;;4.53;4.05;;;15.70;99.90;;;;;;5035407;28;20473;-79
2022/05/18 00:30:43;;;;;;;7.57;5.50;;;15.70;99.90;;;;;;5037611;28;20025;-79
2022/05/18 00:33:10;;;;;;;4.78;4.28;;;15.60;99.90;;;;;;5040616;28;20028;-79
2022/05/18 00:35:38;;;;;;;5.15;4.35;;;15.60;99.90;;;;;;5038631;28;20035;-79
2022/05/18 00:38:04;;;;;;;5.03;4.10;;;15.60;99.90;;;;;;5041915;28;20049;-79
2022/05/18 00:40:32;;;;;;;4.35;3.90;;;15.60;99.90;;;;;;5042155;28;20089;-78
2022/05/18 00:42:58;;;;;;;4.68;3.75;;;15.60;99.90;;;;;;5039271;28;20022;-79
2022/05/18 00:45:23;;;;;;;5.20;4.15;;;15.60;99.90;;;;;;5036748;28;20033;-79
2022/05/18 00:47:49;;;;;;;4.22;3.83;;;15.60;99.90;;;;;;5036296;28;20029;-79
2022/05/18 00:50:36;;;;;;;4.85;4.30;;;15.50;99.90;;;;;;5019196;28;20083;-79
2022/05/18 00:53:10;;;;;;;4.53;3.83;;;15.50;99.90;;;;;;5037125;28;20470;-79
2022/05/18 00:55:41;;;;;;;4.40;4.00;;;15.50;99.90;;;;;;5037546;28;20432;-79
2022/05/18 00:58:24;;;;;;;4.63;3.87;;;15.40;99.90;;;;;;5035731;28;20022;-78
2022/05/18 01:00:52;;;;;;;3.58;3.28;;;15.40;99.90;;;;;;5017838;28;20025;-79
2022/05/18 01:03:29;;;;;;;4.28;3.88;;;15.40;99.90;;;;;;5035611;28;20048;-79
2022/05/18 01:06:06;;;;;;;4.53;4.07;;;15.40;99.90;;;;;;5036028;28;20425;-78
2022/05/18 01:08:39;;;;;;;5.00;4.38;;;15.40;99.90;;;;;;5035544;28;20036;-79
2022/05/18 01:11:06;;;;;;;5.13;4.63;;;15.30;99.90;;;;;;5037545;28;20021;-79
2022/05/18 01:13:31;;;;;;;4.68;4.22;;;15.30;99.90;;;;;;5037107;28;20044;-80
2022/05/18 01:15:57;;;;;;;4.47;3.90;;;15.30;99.90;;;;;;5037538;28;20402;-79
2022/05/18 01:18:23;;;;;;;5.82;4.22;;;15.20;99.90;;;;;;5037049;28;20033;-79
2022/05/18 01:20:49;;;;;;;5.57;4.90;;;15.20;99.90;;;;;;5039607;28;20052;-78
2022/05/18 01:23:28;;;;;;;4.18;3.60;;;15.10;99.90;;;;;;5055996;28;20018;-78
2022/05/18 01:26:14;;;;;;;5.13;4.32;;;15.10;99.90;;;;;;5049378;28;20025;-78
2022/05/18 01:28:44;;;;;;;5.45;4.95;;;15.00;99.90;;;;;;5055359;28;20060;-79
2022/05/18 01:31:10;;;;;;;5.00;4.50;;;15.00;99.90;;;;;;5055489;28;20017;-79
2022/05/18 01:33:36;;;;;;;4.97;4.47;;;14.90;99.90;;;;;;5055242;28;20037;-78
2022/05/18 01:36:04;;;;;;;4.53;4.13;;;14.90;99.90;;;;;;5034692;28;20059;-79
2022/05/18 01:38:31;;;;;;;4.95;4.20;;;14.90;99.90;;;;;;5036617;28;20037;-78
2022/05/18 01:41:19;;;;;;;5.03;4.20;;;14.90;99.90;;;;;;5036199;28;20025;-79
2022/05/18 01:43:59;;;;;;;4.80;4.07;;;14.90;99.90;;;;;;5034854;28;20049;-78
2022/05/18 01:46:28;;;;;;;4.72;4.30;;;14.90;99.90;;;;;;5024298;28;20025;-78
2022/05/18 01:48:54;;;;;;;4.90;4.47;;;14.90;99.90;;;;;;5022256;28;20075;-79
2022/05/18 01:51:32;;;;;;;4.07;3.58;;;14.80;99.90;;;;;;5016734;28;20022;-79
2022/05/18 01:53:59;;;;;;;4.43;4.00;;;14.90;99.90;;;;;;5015031;28;20148;-79
2022/05/18 01:56:25;;;;;;;4.38;3.97;;;14.80;99.90;;;;;;5015439;28;20022;-79
2022/05/18 01:58:51;;;;;;;4.60;4.15;;;14.80;99.90;;;;;;5015168;28;20033;-78
2022/05/18 02:01:17;;;;;;;4.75;3.65;;;14.80;99.90;;;;;;5016189;28;20022;-80
2022/05/18 02:03:42;;;;;;;6.57;3.92;;;14.80;99.90;;;;;;5000587;28;20022;-80
2022/05/18 02:06:08;;;;;;;3.78;3.47;;;14.70;99.90;;;;;;5040053;28;20052;-77
2022/05/18 02:08:34;;;;;;;4.20;3.72;;;14.70;99.90;;;;;;5055571;28;20067;-78
2022/05/18 02:11:00;;;;;;;7.18;4.25;;;14.70;99.90;;;;;;5030398;28;20020;-79
2022/05/18 02:13:26;;;;;;;5.90;4.35;;;14.70;99.90;;;;;;5039313;28;20037;-78
2022/05/18 02:15:51;;;;;;;10.98;5.07;;;14.70;99.90;;;;;;5038073;28;20021;-78
2022/05/18 02:18:17;;;;;;;8.70;6.55;;;14.60;99.90;;;;;;5019083;28;20153;-78
2022/05/18 02:20:43;;;;;;;8.10;5.70;;;14.50;99.90;;;;;;5028491;28;20030;-79
2022/05/18 02:23:09;;;;;;;6.60;5.25;;;14.30;99.90;;;;;;5039108;28;20377;-78
2022/05/18 02:25:37;;;;;;;5.88;5.25;;;14.30;99.90;;;;;;5039060;28;20084;-78
2022/05/18 02:28:04;;;;;;;5.65;4.63;;;14.20;99.90;;;;;;5037370;28;20061;-79
2022/05/18 02:30:29;;;;;;;5.07;4.28;;;14.30;99.90;;;;;;5039515;28;20017;-78
2022/05/18 02:32:55;;;;;;;4.65;4.25;;;14.30;99.90;;;;;;5038196;28;20091;-79
2022/05/18 02:35:21;;;;;;;5.10;4.60;;;14.30;99.90;;;;;;5038903;28;20049;-78
2022/05/18 02:37:47;;;;;;;4.50;4.10;;;14.30;99.90;;;;;;5038399;28;20041;-79
2022/05/18 02:40:13;;;;;;;4.75;4.18;;;14.30;99.90;;;;;;5038776;28;20045;-79
2022/05/18 02:42:39;;;;;;;5.40;4.50;;;14.30;99.90;;;;;;5040460;28;20018;-79
2022/05/18 02:45:05;;;;;;;4.47;4.07;;;14.20;99.90;;;;;;5040051;28;20030;-79
2022/05/18 02:47:32;;;;;;;4.60;3.97;;;14.20;99.90;;;;;;5022094;28;20028;-79
2022/05/18 02:49:57;;;;;;;4.22;3.83;;;14.30;99.90;;;;;;5040278;28;20033;-79
2022/05/18 02:52:23;;;;;;;3.97;3.67;;;14.30;99.90;;;;;;5042281;28;20087;-79
2022/05/18 02:57:33;;;;;;;3.95;3.55;;;14.30;99.90;;;;;;5040565;28;20076;-80
2022/05/18 02:59:59;;;;;;;6.57;3.78;;;14.30;99.90;;;;;;5038919;28;20009;-79
2022/05/18 03:02:25;;;;;;;4.40;3.97;;;14.30;99.90;;;;;;5037381;28;20029;-79
2022/05/18 03:04:50;;;;;;;4.40;4.00;;;14.30;99.90;;;;;;5020297;28;20152;-80
2022/05/18 03:07:16;;;;;;;4.32;3.92;;;14.30;99.90;;;;;;5041453;28;20029;-81
2022/05/18 03:09:42;;;;;;;4.35;3.95;;;14.30;99.90;;;;;;5050253;28;20479;-80
2022/05/18 03:12:08;;;;;;;3.83;3.53;;;14.30;99.90;;;;;;5029893;28;20474;-81
2022/05/18 03:14:34;;;;;;;3.92;3.63;;;14.30;99.90;;;;;;5045397;28;20026;-80
2022/05/18 03:17:00;;;;;;;4.22;3.63;;;14.30;99.90;;;;;;5047908;28;20026;-80
2022/05/18 03:19:26;;;;;;;3.67;3.38;;;14.20;99.90;;;;;;5045935;28;20037;-80
2022/05/18 03:24:50;;;;;;;3.72;3.33;;;14.20;99.90;;;;;;5013144;28;20040;-81
2022/05/18 03:27:16;;;;;;;3.83;3.53;;;14.10;99.90;;;;;;5047458;28;20029;-80
2022/05/18 03:29:41;;;;;;;3.40;3.10;;;14.10;99.90;;;;;;5046722;28;20031;-80
2022/05/18 03:32:07;;;;;;;3.83;3.50;;;14.10;99.90;;;;;;5028816;28;20132;-80
2022/05/18 03:34:33;;;;;;;4.30;3.70;;;14.10;99.90;;;;;;5046899;28;20056;-80
2022/05/18 03:36:59;;;;;;;4.03;3.70;;;14.10;99.90;;;;;;5047502;28;20022;-80
2022/05/18 03:39:25;;;;;;;4.18;3.78;;;14.10;99.90;;;;;;5028130;28;20033;-80
2022/05/18 03:41:52;;;;;;;4.20;3.80;;;14.10;99.90;;;;;;5047078;28;20057;-79
2022/05/18 03:44:19;;;;;;;4.10;3.70;;;14.10;99.90;;;;;;5054280;28;20033;-79
2022/05/18 03:46:45;;;;;;;4.38;3.97;;;14.10;99.90;;;;;;5044675;28;20687;-80
2022/05/18 03:49:11;;;;;;;4.70;4.30;;;14.10;99.90;;;;;;5042033;28;20022;-79
2022/05/18 03:51:40;;;;;;;5.10;4.60;;;14.10;99.90;;;;;;5044874;28;20029;-80
2022/05/18 03:54:06;;;;;;;4.40;4.00;;;14.10;99.90;;;;;;5044165;28;20363;-81
2022/05/18 03:56:32;;;;;;;4.65;4.20;;;14.10;99.90;;;;;;5045316;28;20018;-80
2022/05/18 03:58:59;;;;;;;4.90;4.40;;;14.10;99.90;;;;;;5027388;28;20033;-80
2022/05/18 04:01:26;;;;;;;4.53;4.13;;;14.10;99.90;;;;;;5033941;28;20032;-80
2022/05/18 04:03:52;;;;;;;3.83;3.53;;;14.10;99.90;;;;;;5034251;28;20028;-81
2022/05/18 04:06:19;;;;;;;4.60;4.18;;;14.20;99.90;;;;;;5057444;28;20010;-80
2022/05/18 04:08:45;;;;;;;4.43;4.00;;;14.20;99.90;;;;;;5048476;28;20036;-81
2022/05/18 04:11:12;;;;;;;4.82;3.58;;;14.20;99.90;;;;;;5045147;28;20069;-80
2022/05/18 04:13:38;;;;;;;3.85;3.55;;;14.20;99.90;;;;;;5044521;28;20026;-80
2022/05/18 04:16:05;;;;;;;5.80;4.65;;;14.30;99.90;;;;;;5045013;28;20105;-80
2022/05/18 04:18:32;;;;;;;4.80;4.30;;;14.30;99.90;;;;;;5042321;28;20185;-81
2022/05/18 04:20:59;;;;;;;5.45;3.88;;;14.40;99.90;;;;;;5026651;28;20057;-80
2022/05/18 04:23:25;;;;;;;4.50;3.97;;;14.40;99.90;;;;;;5045242;28;20060;-80
2022/05/18 04:25:51;;;;;;;3.28;3.08;;;14.30;99.90;;;;;;5044078;28;20030;-80
2022/05/18 04:28:17;;;;;;;4.20;3.80;;;14.40;99.90;;;;;;5041528;28;20033;-81
2022/05/18 04:30:46;;;;;;;5.35;4.50;;;14.40;99.90;;;;;;5044519;28;20033;-81
2022/05/18 04:33:15;;;;;;;4.93;3.92;;;14.40;99.90;;;;;;5024172;28;20040;-81
2022/05/18 04:35:41;;;;;;;5.80;4.50;;;14.40;99.90;;;;;;5043573;28;20028;-81
2022/05/18 04:38:07;;;;;;;4.00;3.70;;;14.50;99.90;;;;;;5025933;28;20052;-80
2022/05/18 04:40:33;;;;;;;4.00;3.70;;;14.50;99.90;;;;;;5044955;28;20029;-80
2022/05/18 04:42:59;;;;;;;4.55;4.05;;;14.50;99.90;;;;;;5044094;28;20029;-80
2022/05/18 04:45:25;;;;;;;6.43;4.22;;;14.60;99.90;;;;;;5044288;28;20118;-80
2022/05/18 04:47:51;;;;;;;4.40;4.07;;;14.70;99.90;;;;;;5024967;28;20033;-80
2022/05/18 04:50:19;;;;;;;4.35;3.95;;;14.70;99.90;;;;;;5044749;28;20049;-79
2022/05/18 04:52:45;;;;;;;5.00;4.55;;;14.70;99.90;;;;;;5043229;28;20027;-80
2022/05/18 04:55:11;;;;;;;4.85;4.38;;;14.80;99.90;;;;;;5043773;28;20041;-80
2022/05/18 04:57:37;;;;;;;3.95;3.60;;;14.90;99.90;;;;;;5043211;28;20025;-81
2022/05/18 05:00:06;;;;;;;4.82;4.28;;;15.00;99.90;;;;;;5044818;28;20036;-80
2022/05/18 05:02:34;;;;;;;5.05;4.32;;;15.10;99.70;;;;;;5043178;28;20044;-82
2022/05/18 05:05:01;;;;;;;7.45;4.80;;;15.10;99.40;;;;;;5041366;28;20065;-81
2022/05/18 05:07:26;;;;;;;4.55;4.10;;;15.30;99.20;;;;;;5042126;28;20048;-82
2022/05/18 05:09:52;;;;;;;4.43;4.00;;;15.60;99.30;;;;;;5044729;28;20367;-80
2022/05/18 05:12:18;;;;;;;4.10;3.80;;;17.80;97.70;;;;;;5025817;28;20032;-81
2022/05/18 05:14:53;;;;;;;3.05;2.85;;;20.90;90.60;;;;;;5036828;22;20398;-84
2022/05/18 05:20:57;;;;;;;3.00;2.80;;;22.20;76.90;;;;;;5021099;28;20040;-84
2022/05/18 05:23:35;;;;;;;3.35;2.90;;;21.70;75.00;;;;;;5022627;28;20026;-84
2022/05/18 05:26:03;;;;;;;3.08;2.75;;;21.60;74.40;;;;;;5003937;28;20030;-84
2022/05/18 05:28:29;;;;;;;4.20;3.40;;;21.50;74.80;;;;;;5021225;28;20042;-83
2022/05/18 05:31:00;;;;;;;4.60;3.28;;;22.20;73.80;;;;;;5021664;28;20037;-83
2022/05/18 05:33:25;;;;;;;3.05;2.70;;;24.40;69.40;;;;;;5004005;28;20026;-83
2022/05/18 05:35:51;;;;;;;4.55;2.70;;;27.20;62.50;;;;;;5021044;28;20336;-83
2022/05/18 05:38:17;;;;;;;3.15;2.75;;;29.40;56.30;;;;;;5018537;28;20026;-78
2022/05/18 05:40:42;;;;;;;5.05;3.58;;;30.40;52.00;;;;;;5004119;28;20029;-79
2022/05/18 05:43:10;;;;;;;5.82;3.47;;;30.40;49.20;;;;;;5021018;28;20029;-79
2022/05/18 05:45:37;;;;;;;3.58;3.03;;;29.60;49.80;;;;;;5018572;28;20030;-79
2022/05/18 05:48:03;;;;;;;3.45;3.00;;;30.50;49.70;;;;;;5018946;28;20513;-79
2022/05/18 05:50:30;;;;;;;3.67;2.55;;;31.80;47.80;;;;;;5018350;28;20108;-79
2022/05/18 05:52:57;;;;;;;3.38;3.05;;;32.50;45.80;;;;;;5002535;28;20053;-80
2022/05/18 05:55:24;;;;;;;8.38;3.65;;;32.60;45.20;;;;;;5017878;28;20425;-79
2022/05/18 05:57:53;;;;;;;4.75;3.58;;;33.00;44.20;;;;;;5016351;28;20049;-80
2022/05/18 06:00:19;;;;;;;4.22;3.58;;;32.30;44.40;;;;;;5019494;28;20438;-80
2022/05/18 06:02:44;;;;;;;3.63;3.08;;;32.30;43.80;;;;;;5018250;28;20026;-80
2022/05/18 06:05:13;;;;;;;3.33;3.03;;;32.20;44.20;;;;;;5000407;28;20430;-80
2022/05/18 06:07:39;;;;;;;4.25;2.92;;;32.60;43.60;;;;;;5017996;28;20022;-82
2022/05/18 06:10:05;;;;;;;3.38;3.15;;;32.80;43.00;;;;;;5019439;28;20053;-79
2022/05/18 06:12:31;;;;;;;4.50;3.25;;;32.80;42.50;;;;;;5018108;28;20057;-78
2022/05/18 06:14:58;;;;;;;4.35;3.65;;;32.50;42.50;;;;;;5009648;28;20080;-80
2022/05/18 06:17:24;;;;;;;3.20;2.97;;;32.20;43.00;;;;;;5002122;28;20033;-80
2022/05/18 06:19:49;;;;;;;2.90;2.65;;;31.90;43.60;;;;;;5000973;28;20093;-81
2022/05/18 06:22:15;;;;;;;4.82;3.28;;;31.60;44.00;;;;;;5018279;28;20022;-79
2022/05/18 06:24:41;;;;;;;2.58;2.38;;;31.20;44.90;;;;;;5002539;28;20061;-80
2022/05/18 06:27:07;;;;;;;3.80;3.47;;;32.00;45.00;;;;;;5017933;28;20037;-79
2022/05/18 06:29:34;;;;;;;3.30;2.30;;;32.60;43.30;;;;;;5020458;28;20467;-79
2022/05/18 06:31:59;;;;;;;2.67;2.47;;;33.40;42.50;;;;;;5021198;28;20025;-78
2022/05/18 06:34:25;;;;;;;3.10;2.38;;;33.40;41.90;;;;;;5039021;28;20029;-79
2022/05/18 06:36:51;;;;;;;5.28;3.42;;;33.20;41.90;;;;;;5038236;28;20029;-79
2022/05/18 06:39:19;;;;;;;2.85;2.50;;;32.40;42.20;;;;;;5038175;28;20025;-80
2022/05/18 06:41:46;;;;;;;4.25;2.40;;;32.60;43.10;;;;;;5026882;28;20033;-80
2022/05/18 06:44:12;;;;;;;2.42;2.15;;;33.60;42.30;;;;;;5001534;28;20394;-79
2022/05/18 06:46:39;;;;;;;2.10;2.00;;;34.50;41.10;;;;;;5019090;28;20026;-79
2022/05/18 06:49:06;;;;;;;2.70;2.50;;;34.90;40.50;;;;;;5017597;28;20032;-79
2022/05/18 06:51:36;;;;;;;2.15;2.03;;;35.30;39.70;;;;;;5002012;28;20029;-79
2022/05/18 06:54:03;;;;;;;3.58;2.50;;;35.50;39.50;;;;;;5022024;28;20025;-80
2022/05/18 06:56:32;;;;;;;2.63;2.42;;;35.20;39.40;;;;;;5004137;28;20036;-84
2022/05/18 06:58:58;;;;;;;4.10;2.20;;;34.70;39.30;;;;;;5020955;28;20038;-83
2022/05/18 07:01:26;;;;;;;2.97;2.28;;;33.30;40.60;;;;;;5007290;28;20037;-83
2022/05/18 07:03:52;;;;;;;2.72;2.53;;;33.50;41.40;;;;;;5024486;28;20081;-83
2022/05/18 07:06:21;;;;;;;3.05;2.28;;;33.50;40.80;;;;;;5024176;28;20029;-84
2022/05/18 07:08:50;;;;;;;3.22;2.75;;;31.10;41.80;;;;;;5027702;28;20022;-84
2022/05/18 07:11:20;;;;;;;2.25;2.05;;;28.50;44.90;;;;;;5016744;28;20026;-80
2022/05/18 07:13:51;;;;;;;3.00;2.05;;;26.30;48.50;;;;;;5035203;28;20090;-81
2022/05/18 07:16:18;;;;;;;4.45;2.78;;;24.70;51.80;;;;;;4999049;28;20038;-80
2022/05/18 07:18:45;;;;;;;7.53;3.78;;;23.30;55.00;;;;;;5014807;28;20155;-82
2022/05/18 07:21:11;;;;;;;4.10;3.20;;;22.20;58.00;;;;;;5033202;28;20109;-82
2022/05/18 07:23:37;;;;;;;5.22;3.70;;;21.50;60.40;;;;;;5033572;28;20086;-82
2022/05/18 07:26:07;;;;;;;5.10;3.58;;;21.00;62.00;;;;;;5034494;28;20021;-81
2022/05/18 07:28:32;;;;;;;5.97;3.47;;;20.60;63.60;;;;;;5030992;28;20198;-81
2022/05/18 07:30:58;;;;;;;6.32;3.42;;;20.50;64.50;;;;;;5032092;28;20045;-81
2022/05/18 07:33:26;;;;;;;8.60;4.30;;;20.50;65.10;;;;;;5029257;28;20022;-80
2022/05/18 07:35:53;;;;;;;5.82;3.80;;;20.50;65.60;;;;;;5014701;28;20022;-80
2022/05/18 07:38:22;;;;;;;4.43;3.30;;;20.30;66.30;;;;;;5013226;28;20022;-80
2022/05/18 07:40:51;;;;;;;3.58;3.05;;;20.30;66.60;;;;;;5032466;28;20029;-82
2022/05/18 07:43:20;;;;;;;4.07;3.15;;;20.50;66.30;;;;;;5016443;28;20094;-80
2022/05/18 07:45:48;;;;;;;7.47;4.22;;;20.70;66.00;;;;;;5034423;28;20431;-80
2022/05/18 07:48:14;;;;;;;4.68;3.20;;;20.80;65.30;;;;;;5027964;28;20037;-81
2022/05/18 07:50:41;;;;;;;6.47;3.85;;;20.90;65.90;;;;;;5014330;28;20049;-81
2022/05/18 07:53:07;;;;;;;7.90;3.75;;;20.80;66.20;;;;;;5031751;28;20058;-82
2022/05/18 07:55:54;;;;;;;4.63;3.72;;;20.90;66.50;;;;;;5029469;28;20386;-82
2022/05/18 07:58:22;;;;;;;6.05;3.38;;;20.90;67.00;;;;;;5021687;28;20041;-82
2022/05/18 08:00:48;;;;;;;5.63;3.55;;;21.00;67.00;;;;;;5023112;28;20022;-80
2022/05/18 08:03:15;;;;;;;6.32;3.88;;;21.10;66.90;;;;;;5020997;28;20125;-79
2022/05/18 08:05:43;;;;;;;5.07;3.65;;;21.20;66.50;;;;;;5025650;28;20111;-80
2022/05/18 08:08:14;;;;;;;5.13;3.35;;;21.20;66.80;;;;;;5021776;28;20037;-80
2022/05/18 08:16:18;;;;;;;7.25;3.67;;;21.80;67.00;;;;;;5021935;28;20390;-80
2022/05/18 08:18:45;;;;;;;4.63;3.95;;;22.00;65.90;;;;;;5020762;28;20446;-80
2022/05/18 08:21:11;;;;;;;6.07;3.67;;;22.30;65.30;;;;;;5023097;28;20101;-80
2022/05/18 08:23:36;;;;;;;4.78;4.13;;;22.60;64.80;;;;;;5023501;28;20044;-80
2022/05/18 08:26:03;;;;;;;4.13;3.55;;;22.90;64.20;;;;;;5019006;28;20030;-83
2022/05/18 08:28:29;;;;;;;3.40;3.00;;;23.40;63.10;;;;;;5001824;28;20022;-82
2022/05/18 08:30:55;;;;;;;19.90;3.72;;;24.00;61.60;;;;;;5025729;28;20224;-84
2022/05/18 08:33:22;;;;;;;6.22;3.20;;;24.40;59.00;;;;;;5024671;28;20029;-79
2022/05/18 08:35:48;;;;;;;2.95;2.65;;;24.20;58.80;;;;;;5024503;28;20029;-82
2022/05/18 08:38:15;;;;;;;4.00;2.90;;;24.50;57.90;;;;;;5027531;28;20050;-83
2022/05/18 08:40:58;;;;;;;3.80;2.72;;;24.80;57.00;;;;;;5025321;28;20054;-78
2022/05/18 08:43:35;;;;;;;5.68;4.05;;;25.00;56.70;;;;;;5007355;28;20022;-82
2022/05/18 08:46:09;;;;;;;7.93;3.08;;;25.00;57.10;;;;;;5024757;28;20455;-82
2022/05/18 08:49:00;;;;;;;3.95;3.20;;;24.70;57.20;;;;;;5007435;28;20437;-79
2022/05/18 08:51:28;;;;;;;2.50;2.30;;;24.50;57.20;;;;;;5008441;28;20040;-79
2022/05/18 08:54:31;;;;;;;3.15;2.85;;;24.70;56.90;;;;;;5029010;28;20026;-83
2022/05/18 08:56:58;;;;;;;4.05;2.72;;;24.90;56.50;;;;;;5027308;28;20068;-80
2022/05/18 08:59:29;;;;;;;4.72;4.07;;;24.90;57.00;;;;;;5009381;28;20029;-80
2022/05/18 09:01:58;;;;;;;3.60;3.00;;;24.70;57.50;;;;;;5025436;28;20030;-82
2022/05/18 09:04:59;;;;;;;8.25;3.40;;;24.40;58.40;;;;;;5028746;28;20439;-81
2022/05/18 09:07:33;;;;;;;4.38;3.88;;;24.20;59.10;;;;;;4948287;29;20046;-79
2022/05/18 09:10:16;;;;;;;4.25;3.00;;;24.00;59.30;;;;;;4996056;28;20044;-79
2022/05/18 09:12:48;;;;;;;3.50;3.20;;;23.90;60.10;;;;;;5021383;28;20025;-78
2022/05/18 09:15:17;;;;;;;4.53;3.55;;;24.00;60.20;;;;;;5019039;28;20107;-79
2022/05/18 09:18:17;;;;;;;3.22;2.90;;;24.00;59.30;;;;;;5020016;28;20049;-79
2022/05/18 09:21:01;;;;;;;3.60;3.28;;;24.20;58.50;;;;;;5028717;28;20029;-79
2022/05/18 09:23:55;;;;;;;3.70;2.90;;;24.40;58.60;;;;;;5022522;28;20030;-82
2022/05/18 09:26:36;;;;;;;4.07;3.38;;;24.60;57.00;;;;;;5024957;28;20037;-82
2022/05/18 09:29:26;;;;;;;4.00;3.08;;;24.60;55.80;;;;;;5023129;28;20037;-82
2022/05/18 09:32:24;;;;;;;6.22;3.08;;;24.50;56.50;;;;;;5009888;28;20109;-83
2022/05/18 09:35:07;;;;;;;4.40;2.55;;;24.40;56.10;;;;;;5008438;28;20022;-83
2022/05/18 09:37:41;;;;;;;7.05;2.75;;;24.50;54.20;;;;;;5008354;28;20037;-82
2022/05/18 09:40:18;;;;;;;3.05;2.75;;;24.60;54.80;;;;;;5007428;28;20044;-83
2022/05/18 09:43:06;;;;;;;3.13;2.92;;;24.80;55.50;;;;;;5009296;28;20034;-81
2022/05/18 09:45:36;;;;;;;3.95;2.75;;;25.10;55.00;;;;;;5027614;28;20049;-82
2022/05/18 09:48:15;;;;;;;7.93;3.15;;;25.20;54.30;;;;;;5009858;28;20033;-82
2022/05/18 09:50:44;;;;;;;6.15;3.00;;;25.10;53.40;;;;;;5009039;28;20022;-83
2022/05/18 09:53:14;;;;;;;3.10;2.80;;;25.00;53.30;;;;;;5009721;28;20026;-83
2022/05/18 09:55:40;;;;;;;7.75;3.15;;;25.00;53.40;;;;;;5026889;28;20026;-82
2022/05/18 09:58:24;;;;;;;6.15;2.45;;;25.00;53.10;;;;;;5024413;28;20482;-81
2022/05/18 10:07:27;;;;;;;4.30;2.75;;;24.90;53.10;;;;;;5025911;28;20057;-83
2022/05/18 10:09:23;;;;;;;2.92;2.10;;;25.10;52.00;;;;;;5012478;28;20061;-81
2022/05/18 10:11:49;;;;;;;3.15;2.38;;;25.20;52.00;;;;;;4990878;28;20027;-83
2022/05/18 10:14:31;;;;;;;2.17;2.00;;;25.40;51.30;;;;;;5007859;28;20038;-84
2022/05/18 10:17:01;;;;;;;;;;;25.40;50.00;;;;;;5016869;28;20062;-86
2022/05/18 10:19:51;;;;;;;2.55;2.25;;;25.50;49.20;;;;;;5018047;28;19901;-84
2022/05/18 10:22:21;;;;;;;4.90;2.58;;;25.60;48.00;;;;;;5035790;28;20026;-85
2022/05/18 10:25:03;;;;;;;3.95;2.28;;;25.60;47.30;;;;;;5035998;28;20026;-84
2022/05/18 10:27:34;;;;;;;2.17;1.98;;;25.60;47.60;;;;;;5035978;28;20034;-85
2022/05/18 10:30:13;;;;;;;3.20;2.30;;;25.70;48.10;;;;;;5018570;28;20034;-81
2022/05/18 10:32:58;;;;;;;4.10;2.58;;;25.60;48.20;;;;;;5035757;28;20037;-81
2022/05/18 10:35:52;;;;;;;6.22;2.45;;;25.50;49.00;;;;;;5036244;28;20010;-82
2022/05/18 10:38:24;;;;;;;3.28;2.20;;;25.50;48.50;;;;;;5017230;28;20034;-81
2022/05/18 10:40:56;;;;;;;3.67;2.53;;;25.50;47.70;;;;;;5016938;28;20026;-84
2022/05/18 10:43:22;;;;;;;2.60;2.03;;;25.50;48.50;;;;;;5032453;28;20218;-83
2022/05/18 10:46:10;;;;;;;4.68;2.53;;;25.50;49.70;;;;;;5044211;28;20029;-83
2022/05/18 10:48:36;;;;;;;4.35;2.22;;;25.60;50.00;;;;;;5054117;28;20021;-84
2022/05/18 10:51:14;;;;;;;4.75;2.50;;;25.80;48.80;;;;;;5023734;28;20005;-84
2022/05/18 10:53:43;;;;;;;6.60;3.25;;;25.90;48.40;;;;;;5027989;28;20022;-85
2022/05/18 10:56:28;;;;;;;3.22;2.40;;;26.10;49.10;;;;;;5028575;28;20167;-85
2022/05/18 10:59:30;;;;;;;2.97;2.30;;;26.40;49.20;;;;;;5029649;28;20034;-85
2022/05/18 11:02:09;;;;;;;7.30;3.72;;;26.70;48.30;;;;;;5029929;28;20049;-83
2022/05/18 11:04:50;;;;;;;7.10;2.97;;;26.70;49.70;;;;;;5024997;28;20033;-83
2022/05/18 11:07:21;;;;;;;5.85;3.38;;;26.50;51.30;;;;;;5025286;28;20085;-83
2022/05/18 11:09:47;;;;;;;3.70;3.15;;;26.40;51.70;;;;;;5007085;28;20337;-84
2022/05/18 11:12:44;;;;;;;5.68;3.17;;;26.20;51.60;;;;;;5022678;28;20034;-84
2022/05/18 11:15:30;;;;;;;3.70;2.90;;;26.10;52.10;;;;;;5026272;23;20044;-82
2022/05/18 11:18:27;;;;;;;3.80;3.45;;;26.20;52.10;;;;;;5013148;28;20048;-83
2022/05/18 11:21:12;;;;;;;4.70;3.28;;;26.50;52.00;;;;;;5019837;28;20046;-83
2022/05/18 11:23:48;;;;;;;5.18;2.80;;;26.40;50.90;;;;;;5011390;28;20022;-81
2022/05/18 11:26:36;;;;;;;4.28;3.13;;;26.20;51.60;;;;;;5004472;28;20022;-81
2022/05/18 11:29:34;;;;;;;5.35;3.00;;;26.20;51.90;;;;;;4985661;28;20061;-81
2022/05/18 11:32:19;;;;;;;5.38;3.05;;;26.20;51.90;;;;;;5002921;28;20077;-80
2022/05/18 11:35:11;;;;;;;6.55;3.30;;;26.30;52.40;;;;;;5005046;28;20029;-80
2022/05/18 11:38:09;;;;;;;5.10;3.03;;;26.50;51.20;;;;;;5001642;28;20013;-79
2022/05/18 11:41:09;;;;;;;6.03;3.03;;;26.50;52.30;;;;;;5014181;28;20080;-80
2022/05/18 11:43:59;;;;;;;4.78;2.92;;;26.40;52.60;;;;;;5016160;28;20041;-79
2022/05/18 11:46:49;;;;;;;4.55;3.00;;;26.30;52.80;;;;;;5018847;28;20117;-80
2022/05/18 11:49:35;;;;;;;6.57;3.55;;;26.40;52.80;;;;;;5021513;28;20033;-80
2022/05/18 11:52:07;;;;;;;4.95;3.90;;;26.40;53.10;;;;;;5019582;28;20122;-81
2022/05/18 11:55:10;;;;;;;5.38;3.45;;;26.80;51.90;;;;;;5018196;28;20045;-80
2022/05/18 11:57:46;;;;;;;4.85;3.70;;;27.10;52.20;;;;;;5014909;28;20034;-80
2022/05/18 12:00:51;;;;;;;4.65;3.92;;;26.90;52.10;;;;;;5012160;28;20021;-80
2022/05/18 12:03:38;;;;;;;8.85;3.35;;;26.70;52.30;;;;;;5012891;28;20010;-80
2022/05/18 12:06:29;;;;;;;4.80;3.58;;;26.50;53.10;;;;;;5014887;28;20017;-78
2022/05/18 12:09:12;;;;;;;6.85;4.28;;;26.60;52.80;;;;;;4990443;28;20030;-80
2022/05/18 12:11:47;;;;;;;6.85;4.20;;;26.60;52.80;;;;;;5014295;28;20084;-80
2022/05/18 12:14:36;;;;;;;4.65;3.90;;;26.60;53.40;;;;;;4998137;28;20053;-80
2022/05/18 12:17:27;;;;;;;5.40;3.58;;;26.60;53.30;;;;;;5015192;28;20033;-80
2022/05/18 12:20:08;;;;;;;5.13;3.25;;;26.60;53.30;;;;;;5026103;28;20041;-80
2022/05/18 12:22:44;;;;;;;3.22;2.92;;;26.70;53.40;;;;;;5032035;28;20128;-79
2022/05/18 12:25:13;;;;;;;4.65;3.42;;;26.60;53.00;;;;;;5017258;28;20609;-79
2022/05/18 12:27:39;;;;;;;4.32;3.17;;;26.50;53.20;;;;;;5023019;28;20492;-81
2022/05/18 12:30:08;;;;;;;6.80;3.75;;;26.30;53.60;;;;;;5034033;28;20052;-80
2022/05/18 12:32:35;;;;;;;7.53;2.85;;;26.30;53.00;;;;;;5034986;28;20018;-79
2022/05/18 12:35:16;;;;;;;7.03;3.63;;;26.20;53.90;;;;;;5036705;28;20029;-79
2022/05/18 12:38:09;;;;;;;5.47;3.28;;;26.40;53.60;;;;;;5027843;28;20125;-78
2022/05/18 12:40:52;;;;;;;5.07;3.17;;;26.10;54.10;;;;;;4999022;28;20554;-80
2022/05/18 12:43:38;;;;;;;3.25;2.60;;;26.30;53.50;;;;;;5017253;28;20042;-79
2022/05/18 12:46:15;;;;;;;5.93;2.83;;;26.40;53.80;;;;;;5016520;28;20026;-79
2022/05/18 12:49:00;;;;;;;3.92;2.80;;;26.30;53.60;;;;;;5017444;28;20034;-78
2022/05/18 12:51:31;;;;;;;4.70;3.28;;;26.40;53.80;;;;;;5000102;28;20022;-79
2022/05/18 12:54:21;;;;;;;4.18;2.80;;;26.60;52.50;;;;;;5020509;28;20018;-79
2022/05/18 12:57:05;;;;;;;5.63;2.63;;;26.50;52.90;;;;;;5017444;28;20041;-79
2022/05/18 12:59:46;;;;;;;4.60;2.42;;;26.60;53.10;;;;;;5015358;28;20386;-79
2022/05/18 13:02:31;;;;;;;;;;;26.90;52.20;;;;;;5014863;28;20037;-79
2022/05/18 13:04:57;;;;;;;4.90;2.97;;;27.10;51.40;;;;;;5016802;28;20385;-80
2022/05/18 13:07:31;;;;;;;4.72;2.70;;;27.00;51.10;;;;;;5016875;28;20390;-78
2022/05/18 13:10:10;;;;;;;4.05;2.40;;;26.90;51.10;;;;;;4996963;28;20486;-79
2022/05/18 13:12:45;;;;;;;3.80;2.17;;;26.80;50.90;;;;;;5015799;28;20054;-80
2022/05/18 13:15:20;;;;;;;2.63;1.80;;;26.90;50.20;;;;;;4998779;28;20030;-79
2022/05/18 13:17:46;;;;;;;2.50;1.88;;;26.90;50.20;;;;;;5016947;28;20025;-80
2022/05/18 13:20:53;;;;;;;9.15;2.30;;;27.10;50.30;;;;;;5015373;28;20034;-78
2022/05/18 13:23:26;;;;;;;4.03;2.03;;;27.20;49.20;;;;;;5015736;28;20662;-80
2022/05/18 13:26:14;;;;;;;3.58;2.00;;;27.00;48.90;;;;;;5015059;28;20545;-79
2022/05/18 13:28:41;;;;;;;4.53;2.20;;;26.90;48.70;;;;;;5014316;28;20042;-78
2022/05/18 13:31:08;;;;;;;6.20;2.25;;;27.00;48.30;;;;;;5016022;28;20026;-79
2022/05/18 13:33:55;;;;;;;5.07;2.08;;;27.10;47.50;;;;;;5016472;28;20045;-79